createdAt,value
2023-01-01T00:01:29.610Z,6.40
2023-01-01T00:06:33.043Z,5.40
2023-01-01T00:11:36.605Z,5.30
2023-01-01T00:16:40.281Z,5.10
2023-01-01T00:21:43.572Z,5.10
2023-01-01T00:26:46.694Z,4.80
2023-01-01T00:31:50.444Z,5.10
2023-01-01T00:36:53.686Z,5.20
2023-01-01T00:41:56.833Z,4.50
2023-01-01T00:47:00.121Z,5.40
2023-01-01T00:52:03.328Z,5.00
2023-01-01T00:57:06.450Z,5.30
2023-01-01T01:02:09.728Z,5.00
2023-01-01T01:07:12.915Z,5.40
2023-01-01T01:12:18.176Z,5.40
2023-01-01T01:17:22.421Z,5.20
2023-01-01T01:22:29.121Z,4.50
2023-01-01T01:27:32.900Z,4.70
2023-01-01T01:32:36.246Z,5.00
2023-01-01T01:37:39.489Z,5.00
2023-01-01T01:42:46.274Z,5.10
2023-01-01T01:47:50.015Z,4.40
2023-01-01T01:53:02.452Z,5.50
2023-01-01T01:58:09.637Z,6.10
2023-01-01T02:03:18.997Z,5.60
2023-01-01T02:08:23.363Z,5.80
2023-01-01T02:13:26.663Z,5.60
2023-01-01T02:18:59.523Z,6.10
2023-01-01T02:24:24.069Z,5.90
2023-01-01T02:29:33.295Z,5.80
2023-01-01T02:34:47.029Z,5.20
2023-01-01T02:39:59.360Z,5.10
2023-01-01T02:45:03.255Z,5.00
2023-01-01T02:50:35.435Z,5.00
2023-01-01T02:55:46.270Z,4.80
2023-01-01T03:00:54.387Z,3.90
2023-01-01T03:06:25.052Z,4.90
2023-01-01T03:11:52.592Z,4.80
2023-01-01T03:17:22.436Z,5.00
2023-01-01T03:22:31.789Z,4.80
2023-01-01T03:27:41.476Z,4.60
2023-01-01T03:33:01.663Z,4.90
2023-01-01T03:38:10.915Z,5.00
2023-01-01T03:43:21.144Z,4.90
2023-01-01T03:48:24.340Z,5.10
2023-01-01T03:53:40.307Z,4.50
2023-01-01T03:58:53.003Z,4.90
2023-01-01T04:09:01.863Z,4.60
2023-01-01T04:14:05.061Z,4.60
2023-01-01T04:19:08.428Z,4.70
2023-01-01T04:24:11.683Z,4.60
2023-01-01T04:29:14.940Z,4.70
2023-01-01T04:34:18.382Z,4.50
2023-01-01T04:39:21.549Z,4.60
2023-01-01T04:44:24.645Z,5.10
2023-01-01T04:49:27.908Z,4.50
2023-01-01T04:54:31.526Z,4.30
2023-01-01T04:59:34.647Z,4.10
2023-01-01T05:04:37.774Z,4.10
2023-01-01T05:09:40.936Z,4.40
2023-01-01T05:14:44.040Z,4.40
2023-01-01T05:19:47.233Z,4.10
2023-01-01T05:24:50.409Z,4.00
2023-01-01T05:29:53.579Z,4.10
2023-01-01T05:34:56.683Z,3.70
2023-01-01T05:39:59.824Z,4.00
2023-01-01T05:45:03.992Z,3.80
2023-01-01T05:55:10.438Z,4.10
2023-01-01T06:00:14.289Z,3.70
2023-01-01T06:05:17.940Z,3.80
2023-01-01T06:10:23.003Z,4.10
2023-01-01T06:15:27.300Z,3.90
2023-01-01T06:20:31.173Z,3.90
2023-01-01T06:25:35.138Z,4.00
2023-01-01T06:30:38.832Z,4.00
2023-01-01T06:35:43.055Z,3.70
2023-01-01T06:40:56.238Z,4.20
2023-01-01T06:46:16.420Z,3.90
2023-01-01T06:51:22.151Z,3.60
2023-01-01T06:56:25.861Z,3.90
2023-01-01T07:01:31.871Z,4.20
2023-01-01T07:06:35.647Z,4.00
2023-01-01T07:11:38.862Z,4.20
2023-01-01T07:16:42.349Z,4.00
2023-01-01T07:21:51.554Z,4.00
2023-01-01T07:26:54.620Z,4.30
2023-01-01T07:31:57.771Z,3.90
2023-01-01T07:37:00.854Z,3.90
2023-01-01T07:42:10.709Z,3.90
2023-01-01T07:47:33.162Z,3.90
2023-01-01T07:52:36.263Z,3.80
2023-01-01T07:57:39.496Z,4.10
2023-01-01T08:02:42.750Z,3.60
2023-01-01T08:07:47.952Z,4.00
2023-01-01T08:12:51.184Z,3.60
2023-01-01T08:17:58.999Z,3.90
2023-01-01T08:23:07.094Z,3.90
2023-01-01T08:28:10.661Z,4.40
2023-01-01T08:33:13.868Z,4.10
2023-01-01T08:38:17.318Z,3.90
2023-01-01T08:43:21.466Z,4.00
2023-01-01T08:48:30.766Z,4.30
2023-01-01T08:53:34.303Z,4.20
2023-01-01T08:58:39.587Z,3.70
2023-01-01T09:03:42.805Z,3.70
2023-01-01T09:08:45.947Z,4.00
2023-01-01T09:13:49.147Z,3.60
2023-01-01T09:18:53.489Z,3.70
2023-01-01T09:23:56.583Z,2.60
2023-01-01T09:28:59.770Z,3.50
2023-01-01T09:34:02.882Z,3.90
2023-01-01T09:39:06.737Z,3.80
2023-01-01T09:44:31.177Z,3.70
2023-01-01T09:49:43.605Z,3.40
2023-01-01T09:54:58.950Z,3.70
2023-01-01T10:00:02.226Z,3.80
2023-01-01T10:05:25.191Z,3.90
2023-01-01T10:15:44.594Z,3.40
2023-01-01T10:21:14.382Z,3.40
2023-01-01T10:26:23.470Z,3.70
2023-01-01T10:31:49.975Z,3.60
2023-01-01T10:36:59.063Z,3.30
2023-01-01T10:42:03.594Z,3.60
2023-01-01T10:47:27.178Z,3.80
2023-01-01T10:52:39.932Z,3.70
2023-01-01T10:57:44.101Z,3.50
2023-01-01T11:02:47.417Z,3.60
2023-01-01T11:08:02.931Z,3.20
2023-01-01T11:13:20.564Z,3.20
2023-01-01T11:18:29.237Z,3.40
2023-01-01T11:23:36.042Z,3.00
2023-01-01T11:28:40.365Z,3.70
2023-01-01T11:33:53.186Z,3.70
2023-01-01T11:39:26.665Z,3.50
2023-01-01T11:44:39.108Z,3.30
2023-01-01T11:49:43.367Z,3.70
2023-01-01T11:54:46.926Z,3.00
2023-01-01T11:59:56.278Z,3.70
2023-01-01T12:05:17.301Z,3.50
2023-01-01T12:10:27.795Z,3.40
2023-01-01T12:15:46.694Z,3.60
2023-01-01T12:20:57.655Z,3.40
2023-01-01T12:26:24.128Z,3.80
2023-01-01T12:31:53.393Z,3.50
2023-01-01T12:37:18.344Z,3.40
2023-01-01T12:42:44.749Z,3.70
2023-01-01T12:47:59.868Z,3.90
2023-01-01T12:53:30.977Z,4.20
2023-01-01T12:58:40.777Z,4.00
2023-01-01T13:03:54.533Z,3.70
2023-01-01T13:09:16.391Z,3.90
2023-01-01T13:14:19.643Z,3.90
2023-01-01T13:19:31.938Z,3.80
2023-01-01T13:24:35.262Z,3.90
2023-01-01T13:29:44.679Z,4.00
2023-01-01T13:35:01.940Z,4.00
2023-01-01T13:40:30.039Z,4.10
2023-01-01T13:57:43.594Z,4.00
2023-01-01T14:03:03.075Z,3.70
2023-01-01T14:08:12.995Z,4.20
2023-01-01T14:13:18.084Z,4.00
2023-01-01T14:18:36.228Z,4.10
2023-01-01T14:23:43.218Z,4.50
2023-01-01T14:28:47.106Z,4.80
2023-01-01T14:33:50.479Z,4.60
2023-01-01T14:38:58.145Z,4.60
2023-01-01T14:44:14.725Z,4.70
2023-01-01T14:49:22.475Z,4.70
2023-01-01T14:54:34.343Z,4.40
2023-01-01T14:59:47.016Z,4.90
2023-01-01T15:14:58.390Z,4.60
2023-01-01T15:20:22.113Z,4.90
2023-01-01T15:25:25.502Z,4.90
2023-01-01T15:30:33.835Z,4.70
2023-01-01T15:35:38.347Z,4.80
2023-01-01T15:40:51.085Z,5.20
2023-01-01T15:46:00.335Z,4.50
2023-01-01T15:51:12.854Z,4.80
2023-01-01T15:56:16.578Z,5.30
2023-01-01T16:01:26.539Z,5.10
2023-01-01T16:06:30.396Z,5.20
2023-01-01T16:11:33.647Z,5.40
2023-01-01T16:16:39.895Z,5.70
2023-01-01T16:21:43.130Z,5.80
2023-01-01T16:26:47.659Z,6.00
2023-01-01T16:31:51.878Z,6.20
2023-01-01T16:36:54.990Z,5.90
2023-01-01T16:41:58.676Z,6.00
2023-01-01T16:47:01.895Z,5.80
2023-01-01T16:52:05.702Z,6.30
2023-01-01T16:57:09.312Z,6.80
2023-01-01T17:02:12.489Z,6.90
2023-01-01T17:07:15.834Z,7.10
2023-01-01T17:12:18.964Z,6.30
2023-01-01T17:17:22.124Z,6.80
2023-01-01T17:22:29.230Z,6.80
2023-01-01T17:27:36.247Z,6.80
2023-01-01T17:32:39.466Z,6.80
2023-01-01T17:37:43.722Z,6.90
2023-01-01T17:42:46.872Z,6.80
2023-01-01T17:47:50.037Z,6.70
2023-01-01T17:52:53.321Z,6.50
2023-01-01T17:57:56.548Z,7.00
2023-01-01T18:02:59.818Z,7.10
2023-01-01T18:08:03.629Z,6.80
2023-01-01T18:13:06.879Z,6.90
2023-01-01T18:18:10.084Z,7.30
2023-01-01T18:23:13.357Z,8.00
2023-01-01T18:28:16.559Z,7.50
2023-01-01T18:33:19.767Z,7.90
2023-01-01T18:38:23.332Z,6.70
2023-01-01T18:43:26.577Z,7.90
2023-01-01T18:48:29.735Z,7.80
2023-01-01T18:53:32.984Z,8.80
2023-01-01T18:58:36.159Z,8.40
2023-01-01T19:03:41.539Z,8.20
2023-01-01T19:08:45.125Z,8.70
2023-01-01T19:13:49.981Z,8.80
2023-01-01T19:18:53.346Z,8.50
2023-01-01T19:24:02.348Z,9.20
2023-01-01T19:29:21.912Z,8.70
2023-01-01T19:34:25.624Z,8.60
2023-01-01T19:39:29.480Z,9.00
2023-01-01T19:44:34.805Z,9.80
2023-01-01T19:49:38.183Z,9.70
2023-01-01T19:54:41.364Z,10.50
2023-01-01T19:59:44.514Z,9.70
2023-01-01T20:04:47.770Z,9.80
2023-01-01T20:09:54.159Z,10.40
2023-01-01T20:14:57.329Z,10.20
2023-01-01T20:20:00.590Z,10.10
2023-01-01T20:25:04.356Z,10.70
2023-01-01T20:30:08.205Z,10.90
2023-01-01T20:35:11.446Z,10.20
2023-01-01T20:40:14.637Z,10.60
2023-01-01T20:45:17.992Z,10.90
2023-01-01T20:50:21.171Z,11.20
2023-01-01T20:55:24.366Z,10.60
2023-01-01T21:00:27.491Z,10.90
2023-01-01T21:05:31.816Z,11.10
2023-01-01T21:10:34.997Z,10.90
2023-01-01T21:15:39.150Z,10.90
2023-01-01T21:20:46.441Z,10.80
2023-01-01T21:25:52.109Z,10.30
2023-01-01T21:31:00.112Z,9.80
2023-01-01T21:36:16.224Z,9.50
2023-01-01T21:41:26.222Z,8.80
2023-01-01T21:46:34.616Z,8.80
2023-01-01T21:51:42.456Z,9.60
2023-01-01T21:56:52.824Z,9.80
2023-01-01T22:02:30.895Z,8.90
2023-01-01T22:13:01.933Z,10.10
2023-01-01T22:18:07.651Z,10.00
2023-01-01T22:23:19.917Z,9.40
2023-01-01T22:28:30.563Z,10.10
2023-01-01T22:33:38.429Z,9.90
2023-01-01T22:38:41.691Z,10.40
2023-01-01T22:43:46.965Z,9.50
2023-01-01T22:48:57.551Z,9.10
2023-01-01T22:54:01.244Z,9.80
2023-01-01T22:59:04.447Z,10.00
2023-01-01T23:04:07.580Z,9.90
2023-01-01T23:09:12.274Z,10.50
2023-01-01T23:14:38.615Z,9.80
2023-01-01T23:19:42.457Z,10.60
2023-01-01T23:24:46.522Z,10.00
2023-01-01T23:29:52.896Z,9.70
2023-01-01T23:34:56.724Z,10.30
2023-01-01T23:39:59.831Z,10.30
2023-01-01T23:45:03.062Z,10.70
2023-01-01T23:50:07.069Z,10.10
2023-01-01T23:55:10.516Z,10.90
